Time;durP1;ratioP1;P1;durP2;ratioP2;P2;SDS_P1;SDS_P2;PMS_P1;PMS_P2;Temp;Humidity;BMP_temperature;BMP_pressure;BME280_temperature;BME280_humidity;BME280_pressure;Samples;Min_cycle;Max_cycle;Signal;HPM_P1;HPM_P2
2022/07/31 06:47:57;;;;;;;;;;;14.70;62.50;;;;;;5044071;28;19986;-67
2022/07/31 06:50:24;;;;;;;;;;;14.70;62.50;;;;;;5051360;28;19917;-67
2022/07/31 06:52:50;;;;;;;;;;;14.70;62.30;;;;;;5051756;28;20019;-69
2022/07/31 06:55:17;;;;;;;;;;;14.70;62.50;;;;;;5033049;28;19915;-67
2022/07/31 06:57:44;;;;;;;;;;;14.70;63.00;;;;;;5045172;28;19908;-67
2022/07/31 07:00:11;;;;;;;;;;;14.70;63.30;;;;;;5062322;28;19908;-67
2022/07/31 07:02:37;;;;;;;;;;;14.70;62.80;;;;;;5062854;28;19915;-67
2022/07/31 07:05:04;;;;;;;;;;;14.70;62.90;;;;;;5071513;28;19908;-67
2022/07/31 07:07:31;;;;;;;;;;;14.70;62.80;;;;;;5072008;28;20365;-67
2022/07/31 07:09:57;;;;;;;;;;;14.60;63.10;;;;;;5053857;28;20006;-67
2022/07/31 07:12:24;;;;;;;;;;;14.60;63.20;;;;;;5067408;28;19962;-67
2022/07/31 07:14:50;;;;;;;;;;;14.60;63.50;;;;;;5022741;28;19924;-68
2022/07/31 07:17:17;;;;;;;;;;;14.60;63.40;;;;;;5059875;28;19905;-68
2022/07/31 07:19:43;;;;;;;;;;;14.60;63.50;;;;;;5049747;28;19939;-68
2022/07/31 07:22:10;;;;;;;;;;;14.50;63.70;;;;;;5053800;28;19950;-68
2022/07/31 07:24:37;;;;;;;;;;;14.50;63.70;;;;;;5036012;28;19923;-69
2022/07/31 07:27:03;;;;;;;;;;;14.40;63.70;;;;;;5033302;28;20386;-68
2022/07/31 07:29:30;;;;;;;;;;;14.50;63.60;;;;;;5053571;28;19950;-68
2022/07/31 07:31:58;;;;;;;;;;;14.50;64.00;;;;;;5066954;28;19955;-68
2022/07/31 07:34:26;;;;;;;;;;;14.50;64.00;;;;;;5054254;28;19920;-68
2022/07/31 07:36:52;;;;;;;;;;;14.50;63.90;;;;;;5053771;28;19916;-68
2022/07/31 07:39:19;;;;;;;;;;;14.50;64.40;;;;;;5049712;28;20015;-67
2022/07/31 07:41:45;;;;;;;;;;;14.50;64.30;;;;;;5051043;28;19909;-80
2022/07/31 07:44:12;;;;;;;;;;;14.40;64.20;;;;;;5049927;28;19921;-67
2022/07/31 07:46:39;;;;;;;;;;;14.40;64.40;;;;;;5049713;28;19952;-68
2022/07/31 07:49:05;;;;;;;;;;;14.40;64.30;;;;;;5052705;28;19916;-72
2022/07/31 07:51:32;;;;;;;;;;;14.40;64.40;;;;;;5052771;28;19916;-66
2022/07/31 07:54:00;;;;;;;;;;;14.50;64.50;;;;;;5052429;28;19916;-67
2022/07/31 07:56:26;;;;;;;;;;;14.40;64.70;;;;;;5051351;28;19921;-66
2022/07/31 07:58:54;;;;;;;;;;;14.50;64.50;;;;;;5033679;28;20350;-67
2022/07/31 08:01:21;;;;;;;;;;;14.40;64.50;;;;;;5050094;28;19919;-67
2022/07/31 08:03:47;;;;;;;;;;;14.40;64.70;;;;;;5032172;28;19920;-66
2022/07/31 08:06:14;;;;;;;;;;;14.40;64.60;;;;;;5053010;28;19909;-66
2022/07/31 08:08:40;;;;;;;;;;;14.40;64.50;;;;;;5052163;28;19962;-67
2022/07/31 08:11:07;;;;;;;;;;;14.40;64.20;;;;;;5054802;28;19908;-69
2022/07/31 08:13:33;;;;;;;;;;;14.40;64.30;;;;;;5060239;28;19916;-68
2022/07/31 08:16:00;;;;;;;;;;;14.40;64.80;;;;;;5047739;28;19935;-69
2022/07/31 11:13:32;;;;;;;;;;;14.10;65.00;;;;;;5083883;28;19923;-65
2022/07/31 11:16:04;;;;;;;;;;;14.10;64.90;;;;;;5091016;28;20380;-64
2022/07/31 11:18:31;;;;;;;;;;;14.00;65.20;;;;;;5091820;28;20437;-65
2022/07/31 11:21:01;;;;;;;;;;;14.10;65.20;;;;;;5090166;28;19907;-65
2022/07/31 11:23:28;;;;;;;;;;;14.10;65.00;;;;;;5078762;28;20293;-64
2022/07/31 11:25:57;;;;;;;;;;;14.10;65.40;;;;;;5091680;28;20254;-64
2022/07/31 11:28:23;;;;;;;;;;;14.10;64.70;;;;;;5091926;28;19920;-63
2022/07/31 11:30:53;;;;;;;;;;;14.00;64.30;;;;;;5091016;28;20023;-64
2022/07/31 11:33:36;;;;;;;;;;;14.10;63.80;;;;;;5078102;28;20007;-65
2022/07/31 11:36:08;;;;;;;;;;;14.20;63.70;;;;;;5091561;28;20624;-66
2022/07/31 11:38:35;;;;;;;;;;;14.10;64.40;;;;;;5091817;28;19904;-65
2022/07/31 11:41:02;;;;;;;;;;;14.10;63.60;;;;;;5077807;28;19904;-66
2022/07/31 11:43:29;;;;;;;;;;;14.20;63.70;;;;;;5091918;28;19977;-65
2022/07/31 11:45:56;;;;;;;;;;;14.20;63.70;;;;;;5091399;28;19908;-65
2022/07/31 11:48:23;;;;;;;;;;;14.20;63.70;;;;;;5091422;28;19958;-64
2022/07/31 11:50:50;;;;;;;;;;;14.20;64.00;;;;;;5081093;28;19966;-66
2022/07/31 11:53:16;;;;;;;;;;;14.10;64.20;;;;;;5088183;28;19999;-66
2022/07/31 11:55:49;;;;;;;;;;;14.10;64.20;;;;;;5091733;28;19908;-64
2022/07/31 11:58:17;;;;;;;;;;;14.10;64.20;;;;;;5088640;28;20364;-65
2022/07/31 12:00:50;;;;;;;;;;;14.20;64.00;;;;;;5069253;28;20415;-64
2022/07/31 12:03:17;;;;;;;;;;;14.20;63.90;;;;;;5085988;28;19944;-66
2022/07/31 12:05:44;;;;;;;;;;;14.10;64.20;;;;;;5087234;28;20031;-65
2022/07/31 12:08:11;;;;;;;;;;;14.10;64.30;;;;;;5084859;28;19904;-65
2022/07/31 12:10:38;;;;;;;;;;;14.10;64.30;;;;;;5090066;28;19965;-66
2022/07/31 12:13:09;;;;;;;;;;;14.00;64.40;;;;;;5089663;28;20019;-66
2022/07/31 12:15:35;;;;;;;;;;;14.00;64.40;;;;;;5089827;28;19904;-66
2022/07/31 12:18:04;;;;;;;;;;;14.10;64.80;;;;;;5091185;28;19915;-65
2022/07/31 12:20:30;;;;;;;;;;;14.00;65.20;;;;;;5088126;28;19912;-65
2022/07/31 12:22:58;;;;;;;;;;;14.00;65.80;;;;;;5080556;28;19923;-66
2022/07/31 12:25:25;;;;;;;;;;;13.90;66.00;;;;;;5073324;28;19919;-66
2022/07/31 12:27:54;;;;;;;;;;;14.00;66.30;;;;;;5083195;28;19908;-65
2022/07/31 12:30:24;;;;;;;;;;;13.90;66.20;;;;;;5076934;28;19912;-66
2022/07/31 12:32:51;;;;;;;;;;;13.90;66.10;;;;;;5084563;28;19934;-66
2022/07/31 12:35:18;;;;;;;;;;;13.90;66.10;;;;;;5070997;28;19908;-66
2022/07/31 12:37:45;;;;;;;;;;;14.00;65.20;;;;;;5072098;28;19916;-66
2022/07/31 12:40:24;;;;;;;;;;;14.00;65.80;;;;;;5071441;28;19912;-66
2022/07/31 12:42:51;;;;;;;;;;;14.00;65.70;;;;;;5067601;28;19963;-65
2022/07/31 12:45:27;;;;;;;;;;;13.90;65.80;;;;;;5072755;28;19908;-66
2022/07/31 12:47:53;;;;;;;;;;;13.90;65.90;;;;;;5076643;28;19908;-65
2022/07/31 12:50:20;;;;;;;;;;;13.80;66.00;;;;;;5073602;28;19908;-65
2022/07/31 12:52:47;;;;;;;;;;;13.90;66.00;;;;;;5073526;28;20018;-64
2022/07/31 12:55:15;;;;;;;;;;;13.80;66.00;;;;;;5069751;28;19936;-65
2022/07/31 12:57:42;;;;;;;;;;;13.90;66.00;;;;;;5069701;28;19946;-65
2022/07/31 13:00:09;;;;;;;;;;;13.80;65.90;;;;;;5067066;28;20008;-65
2022/07/31 13:02:36;;;;;;;;;;;13.90;66.10;;;;;;5068831;28;19944;-65
2022/07/31 13:05:02;;;;;;;;;;;13.80;66.40;;;;;;5068668;28;19913;-66
2022/07/31 13:07:29;;;;;;;;;;;13.80;66.80;;;;;;5070004;28;19938;-65
2022/07/31 13:09:55;;;;;;;;;;;13.80;66.90;;;;;;5069749;28;19916;-65
2022/07/31 13:12:22;;;;;;;;;;;13.80;67.30;;;;;;5074219;28;19916;-65
2022/07/31 13:14:49;;;;;;;;;;;13.80;66.70;;;;;;5073238;28;19904;-64
2022/07/31 13:17:15;;;;;;;;;;;13.80;66.80;;;;;;5067875;28;19941;-64
2022/07/31 13:19:42;;;;;;;;;;;13.80;66.80;;;;;;5069582;28;19908;-65
2022/07/31 13:22:08;;;;;;;;;;;13.80;66.90;;;;;;5069899;28;19908;-65
2022/07/31 13:24:35;;;;;;;;;;;13.70;66.40;;;;;;5069845;28;19959;-64
2022/07/31 13:27:01;;;;;;;;;;;13.70;66.40;;;;;;5069362;28;19965;-64
2022/07/31 13:29:28;;;;;;;;;;;13.70;66.90;;;;;;5070983;28;20014;-64
2022/07/31 13:31:54;;;;;;;;;;;13.70;66.90;;;;;;5089896;28;19908;-64
2022/07/31 13:34:21;;;;;;;;;;;13.70;66.60;;;;;;5089775;28;19922;-64
2022/07/31 13:36:47;;;;;;;;;;;13.70;66.50;;;;;;5090043;28;20326;-64
2022/07/31 13:39:14;;;;;;;;;;;13.70;66.40;;;;;;5083392;28;19912;-64
2022/07/31 13:41:40;;;;;;;;;;;13.70;66.10;;;;;;5089531;28;20027;-64
2022/07/31 13:44:08;;;;;;;;;;;13.70;66.10;;;;;;5084163;28;19927;-63
2022/07/31 13:46:35;;;;;;;;;;;13.70;65.60;;;;;;5087794;28;19935;-63
2022/07/31 13:49:06;;;;;;;;;;;13.70;65.80;;;;;;5089790;28;19908;-63
2022/07/31 13:51:33;;;;;;;;;;;13.70;65.40;;;;;;5086234;28;20005;-63
2022/07/31 13:54:00;;;;;;;;;;;13.70;65.80;;;;;;5089351;28;20038;-63
2022/07/31 13:56:26;;;;;;;;;;;13.70;66.00;;;;;;5089550;28;19908;-63
2022/07/31 13:58:53;;;;;;;;;;;13.70;65.90;;;;;;5082125;28;19919;-63
2022/07/31 14:01:20;;;;;;;;;;;13.70;65.80;;;;;;5085368;28;20045;-64
2022/07/31 14:03:47;;;;;;;;;;;13.70;65.60;;;;;;5088961;28;19926;-64
2022/07/31 14:06:13;;;;;;;;;;;13.70;65.80;;;;;;5088160;28;19976;-63
2022/07/31 14:08:40;;;;;;;;;;;13.70;65.40;;;;;;5089694;28;19963;-64
2022/07/31 14:11:06;;;;;;;;;;;13.70;65.50;;;;;;5093162;28;19914;-64
2022/07/31 14:13:33;;;;;;;;;;;13.70;65.50;;;;;;5089973;28;19920;-64
2022/07/31 14:15:59;;;;;;;;;;;13.70;64.80;;;;;;5092160;28;19918;-64
2022/07/31 14:18:26;;;;;;;;;;;13.70;64.50;;;;;;5093256;28;19908;-64
2022/07/31 14:20:52;;;;;;;;;;;13.70;63.90;;;;;;5093466;28;20452;-64
2022/07/31 14:23:19;;;;;;;;;;;13.70;63.20;;;;;;5093118;28;20285;-64
2022/07/31 14:25:45;;;;;;;;;;;13.70;62.80;;;;;;5089796;28;20284;-64
2022/07/31 14:28:12;;;;;;;;;;;13.80;62.80;;;;;;5092810;28;20340;-65
2022/07/31 14:30:44;;;;;;;;;;;13.80;63.20;;;;;;5092354;28;19987;-65
2022/07/31 14:33:12;;;;;;;;;;;13.80;62.90;;;;;;5092728;28;19904;-65
2022/07/31 14:35:39;;;;;;;;;;;13.70;64.00;;;;;;5093345;28;19908;-64
2022/07/31 14:38:05;;;;;;;;;;;13.80;62.50;;;;;;5088761;28;19908;-64
2022/07/31 14:40:32;;;;;;;;;;;13.80;61.70;;;;;;5092903;28;19908;-64
2022/07/31 14:42:59;;;;;;;;;;;13.90;62.70;;;;;;5092372;28;19952;-65
2022/07/31 14:45:25;;;;;;;;;;;13.80;62.80;;;;;;5092768;28;20556;-66
2022/07/31 14:47:53;;;;;;;;;;;13.80;62.80;;;;;;5090038;28;19911;-66
2022/07/31 14:50:20;;;;;;;;;;;13.80;63.20;;;;;;5090944;28;19998;-65
2022/07/31 14:52:47;;;;;;;;;;;13.80;63.20;;;;;;5095297;28;20365;-65
2022/07/31 14:55:14;;;;;;;;;;;13.80;63.50;;;;;;5095346;28;19908;-66
2022/07/31 14:57:40;;;;;;;;;;;13.80;63.70;;;;;;5087887;28;19912;-66
2022/07/31 15:00:13;;;;;;;;;;;13.80;63.50;;;;;;5094820;28;19927;-66
2022/07/31 15:02:43;;;;;;;;;;;13.80;64.00;;;;;;5079700;28;19909;-66
2022/07/31 15:05:10;;;;;;;;;;;13.80;64.20;;;;;;5091662;28;20289;-66
2022/07/31 15:07:37;;;;;;;;;;;13.80;64.40;;;;;;5095082;28;20322;-66
2022/07/31 15:10:07;;;;;;;;;;;13.80;64.40;;;;;;5087710;28;19915;-66
2022/07/31 15:12:33;;;;;;;;;;;13.80;64.50;;;;;;5094794;28;19969;-66
2022/07/31 15:15:00;;;;;;;;;;;13.80;64.90;;;;;;5090307;28;19908;-66
2022/07/31 15:17:26;;;;;;;;;;;13.80;64.80;;;;;;5094829;28;19911;-66
2022/07/31 15:19:53;;;;;;;;;;;13.70;64.70;;;;;;5095088;28;19908;-66
2022/07/31 15:22:20;;;;;;;;;;;13.70;65.00;;;;;;5093984;28;20342;-66
2022/07/31 15:24:46;;;;;;;;;;;13.70;65.00;;;;;;5094379;28;19969;-66
2022/07/31 15:27:13;;;;;;;;;;;13.70;65.00;;;;;;5079550;28;19915;-66
2022/07/31 15:29:39;;;;;;;;;;;13.70;65.20;;;;;;5094649;28;19950;-66
2022/07/31 15:32:06;;;;;;;;;;;13.70;64.90;;;;;;5094585;28;19973;-66
2022/07/31 15:34:34;;;;;;;;;;;13.70;65.20;;;;;;5084685;28;19912;-66
2022/07/31 15:37:01;;;;;;;;;;;13.70;65.60;;;;;;5094343;28;19910;-66
2022/07/31 15:39:27;;;;;;;;;;;13.70;66.20;;;;;;5090691;28;19915;-66
2022/07/31 15:41:54;;;;;;;;;;;13.70;65.50;;;;;;5094284;28;19904;-67
2022/07/31 15:44:20;;;;;;;;;;;13.70;65.30;;;;;;5094161;28;20345;-66
2022/07/31 15:46:47;;;;;;;;;;;13.70;65.60;;;;;;5094271;28;19991;-66
2022/07/31 15:49:13;;;;;;;;;;;13.70;65.50;;;;;;5084503;28;19915;-66
2022/07/31 15:51:40;;;;;;;;;;;13.70;65.30;;;;;;5091983;28;19912;-66
2022/07/31 15:54:07;;;;;;;;;;;13.70;65.70;;;;;;5093445;28;19947;-65
2022/07/31 15:56:33;;;;;;;;;;;13.70;65.10;;;;;;5084784;28;19992;-66
2022/07/31 15:59:00;;;;;;;;;;;13.70;65.20;;;;;;5080678;28;19908;-66
2022/07/31 16:01:26;;;;;;;;;;;13.70;64.50;;;;;;5087902;28;19904;-66
2022/07/31 16:03:53;;;;;;;;;;;13.70;64.40;;;;;;5093855;28;19997;-66
2022/07/31 16:06:19;;;;;;;;;;;13.70;64.60;;;;;;5093897;28;19911;-66
2022/07/31 16:08:46;;;;;;;;;;;13.70;64.70;;;;;;5080737;28;19962;-66
2022/07/31 16:11:12;;;;;;;;;;;13.70;64.60;;;;;;5087545;28;20104;-66
2022/07/31 16:13:39;;;;;;;;;;;13.70;64.40;;;;;;5090051;28;19920;-66
2022/07/31 16:16:06;;;;;;;;;;;13.70;64.40;;;;;;5093878;28;19904;-66
2022/07/31 16:18:32;;;;;;;;;;;13.80;64.80;;;;;;5093914;28;19962;-66
2022/07/31 16:20:59;;;;;;;;;;;13.80;64.40;;;;;;5093810;28;19950;-66
2022/07/31 16:23:26;;;;;;;;;;;13.80;64.50;;;;;;5081615;28;19920;-67
2022/07/31 16:25:53;;;;;;;;;;;13.80;64.60;;;;;;5092714;28;19950;-66
2022/07/31 16:28:20;;;;;;;;;;;13.70;64.40;;;;;;5093540;28;19904;-66
2022/07/31 16:30:46;;;;;;;;;;;13.70;64.20;;;;;;5093444;28;19994;-66
2022/07/31 16:33:13;;;;;;;;;;;13.70;64.30;;;;;;5093061;28;19908;-66
2022/07/31 16:35:40;;;;;;;;;;;13.70;64.50;;;;;;5086933;28;19934;-66
2022/07/31 16:38:07;;;;;;;;;;;13.70;64.60;;;;;;5085180;28;20547;-66
2022/07/31 16:40:33;;;;;;;;;;;13.70;65.20;;;;;;5083414;28;19912;-66
2022/07/31 16:43:00;;;;;;;;;;;13.70;64.90;;;;;;5092906;28;19962;-66
2022/07/31 16:45:27;;;;;;;;;;;13.70;65.10;;;;;;5093590;28;19912;-66
2022/07/31 16:47:54;;;;;;;;;;;13.70;65.20;;;;;;5076079;28;19915;-66
2022/07/31 22:12:48;;;;;;;;;;;13.60;79.90;;;;;;5043600;28;19927;-63
2022/07/31 22:15:16;;;;;;;;;;;13.60;79.60;;;;;;5049932;28;19953;-63
2022/07/31 22:17:42;;;;;;;;;;;13.70;79.60;;;;;;5054179;28;20022;-64
2022/07/31 22:20:09;;;;;;;;;;;13.70;79.70;;;;;;5049790;28;20366;-64
2022/07/31 22:22:36;;;;;;;;;;;13.70;79.50;;;;;;5045172;28;19960;-64
2022/07/31 22:25:03;;;;;;;;;;;13.70;79.40;;;;;;5050385;28;19959;-64
2022/07/31 22:30:15;;;;;;;;;;;13.70;78.90;;;;;;5071808;28;20365;-64
2022/07/31 22:32:42;;;;;;;;;;;13.70;79.10;;;;;;5075277;28;19908;-64
2022/07/31 22:35:09;;;;;;;;;;;13.70;79.40;;;;;;5075259;28;19950;-65
2022/07/31 22:37:38;;;;;;;;;;;13.70;78.80;;;;;;5071165;28;20429;-64
2022/07/31 22:40:05;;;;;;;;;;;13.70;79.20;;;;;;5073646;28;19990;-65
2022/07/31 22:42:34;;;;;;;;;;;13.70;79.40;;;;;;5075504;28;20371;-64
2022/07/31 22:45:01;;;;;;;;;;;13.70;79.70;;;;;;5074856;28;19919;-64
2022/07/31 22:47:29;;;;;;;;;;;13.70;79.60;;;;;;5075012;28;20358;-64
2022/07/31 22:49:55;;;;;;;;;;;13.70;79.80;;;;;;5074645;28;19904;-64
2022/07/31 22:52:22;;;;;;;;;;;13.80;79.50;;;;;;5057062;28;19908;-64
2022/07/31 22:54:48;;;;;;;;;;;13.70;79.90;;;;;;5074369;28;20057;-64
2022/07/31 22:57:15;;;;;;;;;;;13.80;80.20;;;;;;5044378;28;19904;-64
2022/07/31 22:59:42;;;;;;;;;;;13.80;80.40;;;;;;5054639;28;19912;-64
2022/07/31 23:02:09;;;;;;;;;;;13.70;79.90;;;;;;5052458;28;20310;-64
2022/07/31 23:04:36;;;;;;;;;;;13.80;80.40;;;;;;5054825;28;19920;-64
2022/07/31 23:07:03;;;;;;;;;;;13.80;80.50;;;;;;5054720;28;20011;-64
2022/07/31 23:09:30;;;;;;;;;;;13.80;80.50;;;;;;5054173;28;19935;-64
